createdAt,value
2023-05-09T00:05:02.588Z,63.05
2023-05-09T00:10:04.652Z,60.29
2023-05-09T00:15:08.342Z,59.42
2023-05-09T00:20:12.275Z,58.56
2023-05-09T00:25:14.251Z,58.87
2023-05-09T00:30:16.018Z,59.67
2023-05-09T00:35:17.696Z,59.30
2023-05-09T00:40:19.318Z,58.48
2023-05-09T00:45:20.980Z,58.99
2023-05-09T00:50:22.740Z,58.53
2023-05-09T00:55:24.400Z,61.00
2023-05-09T01:00:26.073Z,60.08
2023-05-09T01:05:44.488Z,59.86
2023-05-09T01:10:54.740Z,59.09
2023-05-09T01:16:08.683Z,60.00
2023-05-09T01:21:24.149Z,58.81
2023-05-09T01:26:48.038Z,58.97
2023-05-09T01:31:50.061Z,59.78
2023-05-09T01:36:52.120Z,60.58
2023-05-09T01:41:55.493Z,59.37
2023-05-09T01:46:58.888Z,61.51
2023-05-09T01:52:04.714Z,60.60
2023-05-09T01:57:08.524Z,59.09
2023-05-09T02:02:10.346Z,59.74
2023-05-09T02:07:12.818Z,60.19
2023-05-09T02:12:14.469Z,60.56
2023-05-09T02:17:17.323Z,61.16
2023-05-09T02:22:19.027Z,60.14
2023-05-09T02:27:21.296Z,60.48
2023-05-09T02:32:25.795Z,60.03
2023-05-09T02:37:28.202Z,59.53
2023-05-09T02:42:30.185Z,62.18
2023-05-09T02:47:31.943Z,60.67
2023-05-09T02:52:33.621Z,61.66
2023-05-09T02:57:35.435Z,63.42
2023-05-09T03:02:37.794Z,60.53
2023-05-09T03:07:41.463Z,60.38
2023-05-09T03:12:43.830Z,62.17
2023-05-09T03:17:47.140Z,62.19
2023-05-09T03:22:48.783Z,62.26
2023-05-09T03:27:50.690Z,61.50
2023-05-09T03:32:52.478Z,62.56
2023-05-09T03:37:54.209Z,62.34
2023-05-09T03:42:55.828Z,60.41
2023-05-09T03:47:57.585Z,59.90
2023-05-09T03:52:59.260Z,59.68
2023-05-09T03:58:01.224Z,59.33
2023-05-09T04:03:04.111Z,60.11
2023-05-09T04:08:11.690Z,60.15
2023-05-09T04:13:13.428Z,59.09
2023-05-09T04:18:15.631Z,59.57
2023-05-09T04:23:17.480Z,57.38
2023-05-09T04:28:19.520Z,56.39
2023-05-09T04:33:22.153Z,56.56
2023-05-09T04:38:25.771Z,55.75
2023-05-09T04:43:28.093Z,54.85
2023-05-09T04:48:29.881Z,54.68
2023-05-09T04:53:32.047Z,55.07
2023-05-09T04:58:38.326Z,52.87
2023-05-09T05:03:43.660Z,53.88
2023-05-09T05:08:45.750Z,52.16
2023-05-09T05:13:47.506Z,52.50
2023-05-09T05:18:49.191Z,52.33
2023-05-09T05:23:52.125Z,52.44
2023-05-09T05:28:56.457Z,53.68
2023-05-09T05:33:59.438Z,51.70
2023-05-09T05:39:01.622Z,52.04
2023-05-09T05:44:03.550Z,52.43
2023-05-09T05:49:05.675Z,51.19
2023-05-09T05:54:08.569Z,51.81
2023-05-09T05:59:13.229Z,51.24
2023-05-09T06:04:15.390Z,51.16
2023-05-09T06:09:17.111Z,50.70
2023-05-09T06:14:19.301Z,51.09
2023-05-09T06:19:21.487Z,49.93
2023-05-09T06:24:34.638Z,49.52
2023-05-09T06:29:37.911Z,48.91
2023-05-09T06:34:39.467Z,48.02
2023-05-09T06:39:41.359Z,48.56
2023-05-09T06:44:43.791Z,48.12
2023-05-09T06:49:45.575Z,48.76
2023-05-09T06:54:47.424Z,47.82
2023-05-09T06:59:48.990Z,47.81
2023-05-09T07:04:50.659Z,47.42
2023-05-09T07:09:55.204Z,47.66
2023-05-09T07:15:02.491Z,47.17
2023-05-09T07:20:04.911Z,47.34
2023-05-09T07:25:09.754Z,46.72
2023-05-09T07:30:11.879Z,46.34
2023-05-09T07:35:13.750Z,46.21
2023-05-09T07:40:15.874Z,45.84
2023-05-09T07:45:18.845Z,45.88
2023-05-09T07:50:23.133Z,46.06
2023-05-09T07:55:24.692Z,46.07
2023-05-09T08:00:26.344Z,46.39
2023-05-09T08:05:27.901Z,45.87
2023-05-09T08:10:31.031Z,45.17
2023-05-09T08:15:32.642Z,45.20
2023-05-09T08:20:34.566Z,45.27
2023-05-09T08:25:36.207Z,45.22
2023-05-09T08:30:37.921Z,44.34
2023-05-09T08:35:39.483Z,45.02
2023-05-09T08:40:41.380Z,43.96
2023-05-09T08:46:05.826Z,43.80
2023-05-09T08:51:07.686Z,43.87
2023-05-09T08:56:09.560Z,44.42
2023-05-09T09:01:13.416Z,43.54
2023-05-09T09:06:16.531Z,43.04
2023-05-09T09:11:18.782Z,42.49
2023-05-09T09:16:22.081Z,43.60
2023-05-09T09:21:23.773Z,43.76
2023-05-09T09:26:29.150Z,43.24
2023-05-09T09:31:33.207Z,44.00
2023-05-09T09:36:36.716Z,44.67
2023-05-09T09:41:39.364Z,43.69
2023-05-09T09:46:51.097Z,43.56
2023-05-09T09:51:54.698Z,43.75
2023-05-09T09:56:56.947Z,43.41
2023-05-09T10:01:58.634Z,43.78
2023-05-09T10:07:03.713Z,43.91
2023-05-09T10:12:07.070Z,44.13
2023-05-09T10:17:09.075Z,43.29
2023-05-09T10:22:12.349Z,43.33
2023-05-09T10:27:15.643Z,43.31
2023-05-09T10:32:53.468Z,43.29
2023-05-09T10:37:57.146Z,43.19
2023-05-09T10:42:58.818Z,42.96
2023-05-09T10:48:01.699Z,43.47
2023-05-09T10:53:11.057Z,41.86
2023-05-09T10:58:19.515Z,42.28
2023-05-09T11:03:21.353Z,40.97
2023-05-09T11:08:30.571Z,40.92
2023-05-09T11:13:33.592Z,41.23
2023-05-09T11:18:35.379Z,40.33
2023-05-09T11:23:38.777Z,39.91
2023-05-09T11:28:40.405Z,39.83
2023-05-09T11:33:43.301Z,39.94
2023-05-09T11:38:48.349Z,39.56
2023-05-09T11:43:49.997Z,40.13
2023-05-09T11:48:51.594Z,38.95
2023-05-09T11:53:54.161Z,39.14
2023-05-09T11:58:56.059Z,39.74
2023-05-09T12:03:58.995Z,38.75
2023-05-09T12:09:00.802Z,38.70
2023-05-09T12:14:02.548Z,38.32
2023-05-09T12:19:05.145Z,38.46
2023-05-09T12:24:07.050Z,38.07
2023-05-09T12:29:08.846Z,37.66
2023-05-09T12:34:10.591Z,37.68
2023-05-09T12:39:12.311Z,38.22
2023-05-09T12:44:28.001Z,38.29
2023-05-09T12:49:30.827Z,37.23
2023-05-09T12:54:32.746Z,36.90
2023-05-09T12:59:34.414Z,37.32
2023-05-09T13:04:36.033Z,37.74
2023-05-09T13:09:54.589Z,37.75
2023-05-09T13:14:56.346Z,36.98
2023-05-09T13:19:57.986Z,37.55
2023-05-09T13:24:59.574Z,37.45
2023-05-09T13:30:01.314Z,36.94
2023-05-09T13:35:03.233Z,37.49
2023-05-09T13:40:05.153Z,37.11
2023-05-09T13:45:07.310Z,37.41
2023-05-09T13:50:09.203Z,37.99
2023-05-09T13:55:10.761Z,38.17
2023-05-09T14:00:14.445Z,37.91
2023-05-09T14:05:17.533Z,38.13
2023-05-09T14:10:19.359Z,38.48
2023-05-09T14:15:21.117Z,39.30
2023-05-09T14:20:22.783Z,39.42
2023-05-09T14:25:24.473Z,38.98
2023-05-09T14:30:26.652Z,39.00
2023-05-09T14:35:28.264Z,39.27
2023-05-09T14:40:31.865Z,38.80
2023-05-09T14:45:33.815Z,39.48
2023-05-09T14:50:35.576Z,39.05
2023-05-09T14:55:37.277Z,39.43
2023-05-09T15:00:38.849Z,39.15
2023-05-09T15:05:41.575Z,39.22
2023-05-09T15:10:43.199Z,39.18
2023-05-09T15:15:44.835Z,38.51
2023-05-09T15:20:46.566Z,37.87
2023-05-09T15:25:48.360Z,38.35
2023-05-09T15:30:49.984Z,38.75
2023-05-09T15:35:56.089Z,38.46
2023-05-09T15:40:57.763Z,38.77
2023-05-09T15:45:59.341Z,39.19
2023-05-09T15:51:02.467Z,39.25
2023-05-09T15:56:04.327Z,39.74
2023-05-09T16:01:07.831Z,39.78
2023-05-09T16:06:09.411Z,40.19
2023-05-09T16:11:10.980Z,41.41
2023-05-09T16:16:12.667Z,42.50
2023-05-09T16:21:14.315Z,41.92
2023-05-09T16:26:15.866Z,40.95
2023-05-09T16:31:17.486Z,40.76
2023-05-09T16:36:19.594Z,40.78
2023-05-09T16:41:21.332Z,40.88
2023-05-09T16:46:23.692Z,41.40
2023-05-09T16:51:25.332Z,41.46
2023-05-09T16:56:27.250Z,41.51
2023-05-09T17:01:29.108Z,41.50
2023-05-09T17:06:30.773Z,41.48
2023-05-09T17:11:32.510Z,41.86
2023-05-09T17:16:36.563Z,41.91
2023-05-09T17:21:41.520Z,42.36
2023-05-09T17:26:43.516Z,42.35
2023-05-09T17:31:45.150Z,42.01
2023-05-09T17:36:46.804Z,41.25
2023-05-09T17:41:48.386Z,40.50
2023-05-09T17:46:50.385Z,40.17
2023-05-09T17:51:52.386Z,40.59
2023-05-09T17:56:55.946Z,40.84
2023-05-09T18:01:57.887Z,40.83
2023-05-09T18:06:59.641Z,40.53
2023-05-09T18:12:01.246Z,40.88
2023-05-09T18:17:02.947Z,41.07
2023-05-09T18:22:04.725Z,41.42
2023-05-09T18:27:06.456Z,41.78
2023-05-09T18:32:08.089Z,42.16
2023-05-09T18:37:10.398Z,42.20
2023-05-09T18:42:13.365Z,42.43
2023-05-09T18:47:16.947Z,43.04
2023-05-09T18:52:20.403Z,43.41
2023-05-09T18:57:21.975Z,43.68
2023-05-09T19:02:23.914Z,44.09
2023-05-09T19:07:25.577Z,44.21
2023-05-09T19:12:28.714Z,44.74
2023-05-09T19:17:30.380Z,44.79
2023-05-09T19:22:32.174Z,44.82
2023-05-09T19:27:33.795Z,45.32
2023-05-09T19:32:35.407Z,45.02
2023-05-09T19:37:37.364Z,45.64
2023-05-09T19:42:39.417Z,45.80
2023-05-09T19:47:41.589Z,46.04
2023-05-09T19:52:43.300Z,46.42
2023-05-09T19:57:44.887Z,46.54
2023-05-09T20:02:46.973Z,46.57
2023-05-09T20:07:49.517Z,46.76
2023-05-09T20:12:52.921Z,46.82
2023-05-09T20:17:54.653Z,47.01
2023-05-09T20:22:56.919Z,47.34
2023-05-09T20:27:58.770Z,47.47
2023-05-09T20:33:01.104Z,47.43
2023-05-09T20:38:04.593Z,47.58
2023-05-09T20:43:06.264Z,47.86
2023-05-09T20:48:08.013Z,47.76
2023-05-09T20:53:09.740Z,48.16
2023-05-09T20:58:14.731Z,48.36
2023-05-09T21:03:16.840Z,48.53
2023-05-09T21:08:19.252Z,48.15
2023-05-09T21:13:21.305Z,48.71
2023-05-09T21:18:23.124Z,48.92
2023-05-09T21:23:26.976Z,48.96
2023-05-09T21:28:29.024Z,48.71
2023-05-09T21:33:30.969Z,49.27
2023-05-09T21:38:32.527Z,48.92
2023-05-09T21:43:34.251Z,49.08
2023-05-09T21:48:36.084Z,49.14
2023-05-09T21:53:37.682Z,49.04
2023-05-09T21:58:39.426Z,49.40
2023-05-09T22:03:41.195Z,49.35
2023-05-09T22:08:43.011Z,49.43
2023-05-09T22:13:44.608Z,49.49
2023-05-09T22:18:46.242Z,49.71
2023-05-09T22:23:47.776Z,49.58
2023-05-09T22:28:49.635Z,49.89
2023-05-09T22:33:51.374Z,49.85
2023-05-09T22:38:52.936Z,50.00
2023-05-09T22:43:54.566Z,50.31
2023-05-09T22:48:56.237Z,50.17
2023-05-09T22:53:57.780Z,50.70
2023-05-09T22:58:59.337Z,50.63
2023-05-09T23:04:02.227Z,51.06
2023-05-09T23:09:04.173Z,50.48
2023-05-09T23:14:06.389Z,51.11
2023-05-09T23:19:07.995Z,51.00
2023-05-09T23:24:09.572Z,50.83
2023-05-09T23:29:11.173Z,50.95
2023-05-09T23:34:12.877Z,50.87
2023-05-09T23:39:15.566Z,51.25
2023-05-09T23:44:17.247Z,51.38
2023-05-09T23:49:18.888Z,51.06
2023-05-09T23:54:21.550Z,51.15
2023-05-09T23:59:23.182Z,51.61
